Time;durP1;ratioP1;P1;durP2;ratioP2;P2;SDS_P1;SDS_P2;PMS_P1;PMS_P2;Temp;Humidity;BMP_temperature;BMP_pressure;BME280_temperature;BME280_humidity;BME280_pressure;Samples;Min_cycle;Max_cycle;Signal;HPM_P1;HPM_P2
2021/08/10 00:00:41;;;;;;;6.88;0.90;;;;;;;31.02;50.24;100658.34;5116074;27;66132;-29
2021/08/10 00:03:11;;;;;;;1.83;0.85;;;;;;;31.07;49.33;100664.75;5115694;27;69153;-30
2021/08/10 00:05:49;;;;;;;1.88;0.60;;;;;;;31.11;49.70;100668.63;5118220;27;66333;-30
2021/08/10 00:08:21;;;;;;;1.00;0.40;;;;;;;30.89;49.41;100637.66;5097714;27;69180;-29
2021/08/10 00:10:51;;;;;;;3.85;1.25;;;;;;;31.16;50.52;100657.94;5112757;27;65403;-29
2021/08/10 00:13:23;;;;;;;9.48;1.73;;;;;;;31.23;54.73;100676.00;5116720;27;70269;-29
2021/08/10 00:15:54;;;;;;;;;;;;;;;31.09;56.94;100673.47;5114607;27;66471;-33
2021/08/10 00:18:31;;;;;;;11.00;2.78;;;;;;;31.28;57.35;100665.31;5131969;27;70661;-33
2021/08/10 00:21:01;;;;;;;4.25;2.58;;;;;;;31.32;56.06;100674.66;5117260;27;65195;-33
2021/08/10 00:23:32;;;;;;;9.30;3.45;;;;;;;31.36;56.65;100670.44;5108909;27;69604;-33
2021/08/10 00:26:02;;;;;;;5.95;3.33;;;;;;;31.40;56.15;100663.53;5115655;27;65306;-32
2021/08/10 00:28:34;;;;;;;;;;;;;;;31.26;59.63;100662.00;5116438;27;69870;-33
2021/08/10 00:31:04;;;;;;;8.48;2.97;;;;;;;31.44;59.32;100658.47;5115053;27;65595;-34
2021/08/10 00:33:35;;;;;;;7.60;3.38;;;;;;;31.45;58.42;100658.22;5114554;27;69187;-34
2021/08/10 00:36:06;;;;;;;6.63;3.78;;;;;;;31.50;58.93;100666.50;5110511;27;66186;-34
2021/08/10 00:38:37;;;;;;;8.32;4.03;;;;;;;31.54;59.72;100665.00;5115638;27;70359;-35
2021/08/10 00:41:08;;;;;;;8.85;3.95;;;;;;;31.54;59.18;100662.28;5110145;27;66478;-35
2021/08/10 00:43:46;;;;;;;15.30;4.53;;;;;;;31.61;59.38;100668.44;5130059;27;69004;-35
2021/08/10 00:46:26;;;;;;;9.30;4.15;;;;;;;31.64;59.07;100674.44;5090904;27;66359;-35
2021/08/10 00:48:57;;;;;;;6.72;4.05;;;;;;;31.65;59.24;100676.09;5103849;27;69235;-38
2021/08/10 00:51:33;;;;;;;8.93;4.07;;;;;;;31.68;59.83;100673.78;5103286;27;66322;-35
2021/08/10 00:54:10;;;;;;;11.70;3.42;;;;;;;31.70;59.52;100668.09;5108715;27;69959;-35
2021/08/10 00:56:46;;;;;;;5.65;3.85;;;;;;;31.55;59.77;100642.25;5110341;27;66058;-34
2021/08/10 00:59:21;;;;;;;7.88;3.90;;;;;;;31.76;60.20;100662.59;5103319;27;70739;-35
2021/08/10 01:01:58;;;;;;;6.47;4.57;;;;;;;31.73;59.59;100662.22;5109627;27;65657;-34
2021/08/10 01:04:30;;;;;;;7.13;3.88;;;;;;;31.78;60.50;100670.47;5111253;27;69976;-34
2021/08/10 01:07:11;;;;;;;10.37;4.10;;;;;;;31.61;61.31;100644.03;5114374;27;66561;-35
2021/08/10 01:10:20;;;;;;;6.25;3.75;;;;;;;31.80;61.24;100671.09;5110958;27;70509;-34
2021/08/10 01:13:06;;;;;;;8.02;3.67;;;;;;;31.87;58.79;100671.78;5108453;27;66614;-34
2021/08/10 01:15:54;;;;;;;10.45;3.88;;;;;;;31.86;60.10;100670.16;5108797;27;69257;-34
2021/08/10 01:18:35;;;;;;;11.63;3.70;;;;;;;31.72;59.92;100638.88;5105704;27;66487;-33
2021/08/10 01:21:44;;;;;;;3.70;3.30;;;;;;;31.85;60.19;100676.66;5128474;27;69853;-34
2021/08/10 01:24:20;;;;;;;6.22;3.67;;;;;;;31.75;58.83;100643.81;5056218;28;65720;-35
2021/08/10 01:27:26;;;;;;;4.88;4.43;;;;;;;31.93;60.68;100683.63;5104346;27;70458;-36
2021/08/10 01:30:07;;;;;;;5.95;4.00;;;;;;;31.98;60.20;100671.06;5106381;27;66449;-34
2021/08/10 01:32:42;;;;;;;5.15;3.85;;;;;;;31.82;60.09;100644.56;5108966;27;69331;-35
2021/08/10 01:35:17;;;;;;;7.78;4.38;;;;;;;32.03;61.32;100682.00;5126114;27;65684;-35
2021/08/10 01:37:53;;;;;;;10.25;4.68;;;;;;;32.09;60.99;100676.72;5085226;27;69134;-35
2021/08/10 01:40:26;;;;;;;7.40;3.58;;;;;;;31.92;61.25;100649.44;5093252;27;66017;-35
2021/08/10 01:43:02;;;;;;;4.75;3.88;;;;;;;32.16;61.85;100682.88;5116451;27;70558;-35
2021/08/10 01:45:37;;;;;;;12.27;4.32;;;;;;;32.17;61.67;100685.34;5075918;27;66116;-34
2021/08/10 01:48:14;;;;;;;6.22;4.10;;;;;;;32.17;61.89;100679.09;5096077;27;68192;-34
2021/08/10 01:50:46;;;;;;;7.38;4.45;;;;;;;32.27;61.37;100691.03;5087508;27;66077;-35
2021/08/10 01:53:27;;;;;;;5.70;4.40;;;;;;;32.06;62.00;100637.31;5110320;27;69895;-34
2021/08/10 01:55:59;;;;;;;14.25;4.80;;;;;;;32.35;61.06;100684.44;5108950;27;65594;-35
2021/08/10 01:58:39;;;;;;;9.07;4.90;;;;;;;32.39;61.28;100677.47;5109559;27;70299;-34
2021/08/10 02:01:12;;;;;;;12.57;5.10;;;;;;;32.40;60.95;100676.41;5106457;27;66315;-33
2021/08/10 02:03:46;;;;;;;7.65;4.68;;;;;;;32.11;61.21;100620.34;5114065;27;70426;-35
2021/08/10 02:06:18;;;;;;;9.95;4.78;;;;;;;32.46;61.47;100694.50;5111977;27;65338;-34
2021/08/10 02:08:54;;;;;;;7.22;4.82;;;;;;;32.44;60.89;100677.59;5097644;27;69534;-36
2021/08/10 02:11:27;;;;;;;7.90;3.90;;;;;;;32.54;60.53;100689.75;5093212;27;66443;-35
2021/08/10 02:14:02;;;;;;;12.98;4.85;;;;;;;32.57;60.56;100683.84;5116174;27;69751;-34
2021/08/10 02:16:38;;;;;;;9.38;4.63;;;;;;;32.56;60.54;100682.22;5113576;27;66041;-37
2021/08/10 02:19:18;;;;;;;18.20;5.18;;;;;;;32.56;60.42;100677.59;5096698;27;70103;-33
2021/08/10 02:22:03;;;;;;;10.77;4.68;;;;;;;32.33;61.61;100645.81;5113471;27;66712;-35
2021/08/10 02:24:49;;;;;;;16.70;4.72;;;;;;;32.63;60.94;100688.38;5097549;27;70458;-34
2021/08/10 02:27:39;;;;;;;9.55;5.10;;;;;;;32.42;61.78;100649.84;5113068;27;66378;-34
2021/08/10 02:30:12;;;;;;;8.10;4.30;;;;;;;32.64;60.89;100679.13;5110476;27;70210;-34
2021/08/10 02:32:48;;;;;;;10.98;3.97;;;;;;;32.73;61.20;100699.44;5090602;27;65235;-34
2021/08/10 02:35:23;;;;;;;5.75;4.32;;;;;;;32.55;61.19;100667.00;5105883;27;70136;-37
2021/08/10 02:38:01;;;;;;;7.85;4.18;;;;;;;32.73;60.49;100699.44;5109848;27;65313;-34
2021/08/10 02:40:34;;;;;;;15.27;5.20;;;;;;;32.77;60.56;100694.38;5088666;27;70169;-34
2021/08/10 02:43:07;;;;;;;8.23;4.03;;;;;;;32.75;60.84;100681.03;5102985;27;65461;-33
2021/08/10 02:45:40;;;;;;;5.28;4.30;;;;;;;32.75;60.74;100700.03;5108988;27;70377;-34
2021/08/10 02:48:14;;;;;;;6.00;4.22;;;;;;;32.71;60.83;100696.97;5102668;27;66340;-36
2021/08/10 02:50:46;;;;;;;6.05;4.10;;;;;;;32.73;60.08;100710.31;5092541;27;69979;-35
2021/08/10 02:53:17;;;;;;;6.38;4.10;;;;;;;32.65;60.04;100702.50;5105373;27;66301;-37
2021/08/10 02:56:02;;;;;;;9.53;4.33;;;;;;;32.69;59.86;100706.41;5108168;27;69381;-35
2021/08/10 02:58:42;;;;;;;11.25;4.45;;;;;;;32.68;59.54;100696.59;5100314;27;67007;-35
2021/08/10 03:01:19;;;;;;;6.97;4.28;;;;;;;32.71;60.20;100712.44;5105172;27;70673;-34
2021/08/10 03:03:54;;;;;;;9.52;5.22;;;;;;;32.71;59.90;100707.03;5103375;27;66006;-37
2021/08/10 03:06:26;;;;;;;12.45;5.72;;;;;;;32.72;59.97;100701.34;5108525;27;71281;-34
2021/08/10 03:08:59;;;;;;;8.40;4.80;;;;;;;32.78;60.07;100694.13;5075199;27;66039;-35
2021/08/10 03:11:40;;;;;;;6.78;4.90;;;;;;;32.80;59.91;100689.28;5106724;27;69356;-35
2021/08/10 03:14:13;;;;;;;6.20;4.88;;;;;;;32.80;59.84;100697.44;5107890;27;66390;-35
2021/08/10 03:16:47;;;;;;;15.85;5.47;;;;;;;32.83;59.59;100696.13;5090670;27;70132;-36
2021/08/10 03:19:21;;;;;;;11.05;5.57;;;;;;;32.83;60.08;100704.28;5093416;27;66822;-36
2021/08/10 03:21:54;;;;;;;11.52;7.15;;;;;;;32.80;59.81;100705.59;5093383;27;70123;-36
2021/08/10 03:24:26;;;;;;;12.75;7.70;;;;;;;32.76;59.26;100703.56;5094635;27;66088;-35
2021/08/10 03:27:01;;;;;;;11.45;8.95;;;;;;;32.76;59.63;100698.97;5074166;27;70171;-34
2021/08/10 03:29:35;;;;;;;17.83;9.80;;;;;;;32.73;59.74;100696.72;5105047;27;65225;-34
2021/08/10 03:32:07;;;;;;;13.30;9.05;;;;;;;32.70;59.71;100684.44;5125788;27;69004;-35
2021/08/10 03:34:38;;;;;;;13.52;8.45;;;;;;;32.74;59.96;100684.00;5108708;27;65404;-34
2021/08/10 03:37:10;;;;;;;9.02;8.07;;;;;;;32.79;59.53;100687.66;5110174;27;70390;-34
2021/08/10 03:39:41;;;;;;;11.82;8.15;;;;;;;32.78;59.39;100683.25;5106126;27;66316;-34
2021/08/10 03:42:14;;;;;;;14.48;7.90;;;;;;;32.83;59.71;100682.56;5103699;27;69983;-35
2021/08/10 03:44:47;;;;;;;13.10;8.27;;;;;;;32.83;59.67;100691.53;5110549;27;67110;-34
2021/08/10 03:47:19;;;;;;;18.00;7.50;;;;;;;32.66;59.25;100649.88;5093450;27;69653;-34
2021/08/10 03:49:51;;;;;;;9.57;7.03;;;;;;;32.91;58.50;100691.16;5127722;27;66445;-34
2021/08/10 03:52:22;;;;;;;12.13;6.78;;;;;;;32.93;58.79;100689.03;5129625;27;70701;-34
2021/08/10 03:54:54;;;;;;;15.55;6.32;;;;;;;32.94;58.71;100684.41;5112254;27;65912;-34
2021/08/10 03:57:29;;;;;;;10.40;6.35;;;;;;;32.89;58.26;100671.53;5108950;27;69519;-34
2021/08/10 04:00:01;;;;;;;13.57;6.50;;;;;;;32.91;58.00;100669.44;5089721;27;66126;-34
2021/08/10 04:02:43;;;;;;;7.15;6.32;;;;;;;32.90;57.88;100662.34;5102215;27;70489;-34
2021/08/10 04:05:18;;;;;;;10.23;6.95;;;;;;;32.93;58.36;100672.72;5110803;27;65585;-34
2021/08/10 04:07:49;;;;;;;9.52;7.57;;;;;;;33.01;58.55;100659.84;5107937;27;70627;-34
2021/08/10 04:10:20;;;;;;;10.00;7.93;;;;;;;33.04;58.35;100648.50;5122792;27;66858;-34
2021/08/10 04:12:51;;;;;;;16.87;7.83;;;;;;;33.09;58.31;100643.19;5124278;27;70308;-36
2021/08/10 04:15:26;;;;;;;11.02;7.60;;;;;;;33.22;57.91;100648.34;5106000;27;65331;-34
2021/08/10 04:18:00;;;;;;;10.05;6.80;;;;;;;33.27;57.54;100645.72;5107316;27;70546;-36
2021/08/10 04:20:32;;;;;;;13.32;6.40;;;;;;;33.34;56.93;100643.66;5100811;27;66365;-36
2021/08/10 04:23:04;;;;;;;9.02;6.25;;;;;;;33.41;56.22;100637.28;5091468;27;70836;-37
2021/08/10 04:25:34;;;;;;;7.38;6.00;;;;;;;33.45;56.01;100641.16;5108134;27;66570;-35
2021/08/10 04:28:09;;;;;;;11.65;6.28;;;;;;;33.43;55.71;100637.84;5111845;27;70475;-36
2021/08/10 04:30:41;;;;;;;12.05;5.50;;;;;;;33.43;55.41;100637.84;5112597;27;66515;-34
2021/08/10 04:33:13;;;;;;;7.22;5.78;;;;;;;33.40;55.10;100638.34;5126734;27;70885;-34
2021/08/10 04:35:44;;;;;;;16.33;6.15;;;;;;;33.28;54.94;100619.34;5114472;27;65321;-34
2021/08/10 04:38:15;;;;;;;8.88;6.05;;;;;;;33.34;54.91;100640.13;5087630;27;69349;-34
2021/08/10 04:40:46;;;;;;;10.65;5.75;;;;;;;33.30;54.82;100623.50;5103796;27;66279;-36
2021/08/10 04:43:23;;;;;;;11.82;6.20;;;;;;;33.32;55.81;100621.34;5108173;27;69439;-33
2021/08/10 04:45:53;;;;;;;7.88;6.10;;;;;;;33.32;55.94;100618.63;5108747;27;66355;-36
2021/08/10 04:48:24;;;;;;;8.50;6.20;;;;;;;33.29;56.25;100610.13;5112032;27;71056;-34
2021/08/10 04:50:55;;;;;;;11.82;6.28;;;;;;;33.28;55.18;100601.16;5092312;27;66495;-34
2021/08/10 04:53:26;;;;;;;9.50;6.27;;;;;;;33.12;52.73;100599.22;5105919;27;71109;-34
2021/08/10 04:55:57;;;;;;;16.00;6.20;;;;;;;33.03;53.14;100600.66;5101854;27;66324;-35
2021/08/10 04:58:31;;;;;;;17.52;5.63;;;;;;;32.90;52.32;100594.44;5088753;27;70700;-36
2021/08/10 05:01:02;;;;;;;11.77;5.28;;;;;;;32.81;51.25;100587.69;5105325;27;66688;-35
2021/08/10 05:03:37;;;;;;;10.32;5.57;;;;;;;32.74;50.35;100587.03;5105558;27;70990;-35
2021/08/10 05:06:09;;;;;;;13.55;4.78;;;;;;;32.66;49.51;100573.81;5085810;27;66204;-35
2021/08/10 05:08:43;;;;;;;8.80;5.03;;;;;;;32.58;48.54;100555.19;5088972;27;69442;-36
2021/08/10 05:11:15;;;;;;;11.85;4.60;;;;;;;32.56;48.93;100560.03;5088092;27;66226;-36
2021/08/10 05:13:45;;;;;;;5.30;3.92;;;;;;;32.56;48.40;100552.69;5106493;27;69722;-35
2021/08/10 05:16:20;;;;;;;7.18;4.32;;;;;;;32.65;46.83;100555.84;5091239;27;66318;-35
2021/08/10 05:18:51;;;;;;;4.15;3.75;;;;;;;32.65;46.70;100545.84;5109593;27;69980;-34
2021/08/10 05:21:23;;;;;;;3.60;3.30;;;;;;;32.67;45.41;100537.44;5102077;27;66329;-33
2021/08/10 05:23:58;;;;;;;23.75;3.78;;;;;;;32.66;44.46;100535.81;5105536;27;70613;-34
2021/08/10 05:26:29;;;;;;;16.75;4.22;;;;;;;32.62;44.21;100540.06;5088025;27;66885;-35
2021/08/10 05:29:03;;;;;;;4.85;3.72;;;;;;;32.53;42.88;100536.06;5109091;27;69483;-36
2021/08/10 05:31:35;;;;;;;5.37;3.83;;;;;;;32.52;43.59;100529.00;5108066;27;66145;-36
2021/08/10 05:34:06;;;;;;;9.32;4.28;;;;;;;32.42;43.25;100530.38;5107119;27;68974;-36
2021/08/10 05:36:37;;;;;;;;;;;;;;;32.20;42.79;100532.06;5114796;27;66200;-35
2021/08/10 05:39:08;;;;;;;9.02;3.28;;;;;;;32.39;42.10;100524.63;5110059;27;69899;-34
2021/08/10 05:41:38;;;;;;;6.82;3.90;;;;;;;32.34;41.79;100517.19;5107606;27;66385;-40
2021/08/10 05:44:09;;;;;;;4.50;3.70;;;;;;;32.36;40.60;100520.50;5111317;27;69355;-36
2021/08/10 05:46:39;;;;;;;7.97;3.47;;;;;;;32.35;40.95;100512.59;5109627;27;66688;-35
2021/08/10 05:49:10;;;;;;;8.73;3.83;;;;;;;32.29;40.59;100508.94;5117464;27;69618;-34
2021/08/10 05:51:41;;;;;;;3.97;3.58;;;;;;;32.33;40.98;100510.09;5108359;27;65823;-35
2021/08/10 05:54:13;;;;;;;4.18;3.47;;;;;;;32.32;40.84;100503.03;5092699;27;69397;-36
2021/08/10 05:56:49;;;;;;;3.95;3.40;;;;;;;32.29;40.29;100498.09;5094760;27;66654;-36
2021/08/10 05:59:23;;;;;;;5.47;3.20;;;;;;;32.26;40.31;100490.41;5114533;27;69814;-35
2021/08/10 06:01:59;;;;;;;4.35;3.15;;;;;;;32.28;39.48;100497.25;5111631;27;66768;-33
2021/08/10 06:04:32;;;;;;;5.70;3.72;;;;;;;32.25;40.09;100483.34;5105841;27;70477;-35
2021/08/10 06:07:04;;;;;;;3.35;3.10;;;;;;;32.27;39.76;100478.50;5108259;27;64905;-37
2021/08/10 06:09:42;;;;;;;3.30;3.00;;;;;;;32.27;40.16;100475.78;5097111;27;69243;-35
2021/08/10 06:12:15;;;;;;;3.72;3.42;;;;;;;32.27;39.96;100462.22;5110357;27;66315;-36
2021/08/10 06:14:48;;;;;;;3.72;3.42;;;;;;;32.25;39.58;100453.47;5110838;27;69775;-35
2021/08/10 06:17:19;;;;;;;4.15;3.40;;;;;;;32.27;38.95;100449.47;5094292;27;65541;-36
2021/08/10 06:19:51;;;;;;;3.30;3.00;;;;;;;32.24;39.39;100435.56;5113725;27;70451;-36
2021/08/10 06:22:26;;;;;;;4.55;3.85;;;;;;;32.17;38.48;100413.16;5114052;27;66053;-35
2021/08/10 06:24:59;;;;;;;4.13;3.80;;;;;;;32.25;38.59;100432.59;5080813;27;69606;-36
2021/08/10 06:27:37;;;;;;;7.50;3.17;;;;;;;32.25;38.78;100431.78;5109881;27;66450;-37
2021/08/10 06:30:14;;;;;;;12.70;3.28;;;;;;;32.32;39.58;100421.63;5092516;27;68017;-35
2021/08/10 06:32:46;;;;;;;12.00;3.85;;;;;;;32.28;40.50;100415.00;5108587;27;66820;-36
2021/08/10 06:35:22;;;;;;;6.70;3.65;;;;;;;32.29;40.40;100408.53;5104703;27;69402;-37
2021/08/10 06:37:55;;;;;;;7.07;3.95;;;;;;;32.29;40.16;100405.81;5084927;27;66005;-37
2021/08/10 06:40:28;;;;;;;3.25;2.95;;;;;;;32.19;39.20;100394.75;5107635;27;70101;-38
2021/08/10 06:42:59;;;;;;;3.90;3.47;;;;;;;32.27;39.21;100399.78;5104680;27;65501;-35
2021/08/10 06:45:33;;;;;;;5.57;3.53;;;;;;;32.25;38.90;100388.34;5103454;27;69767;-38
2021/08/10 06:48:04;;;;;;;3.83;3.53;;;;;;;32.27;39.31;100397.09;5108946;27;65454;-35
2021/08/10 06:50:38;;;;;;;5.43;3.25;;;;;;;32.24;38.79;100381.28;5114967;27;69544;-35
2021/08/10 06:53:13;;;;;;;4.15;3.75;;;;;;;32.23;39.22;100374.19;5112639;27;66308;-37
2021/08/10 06:55:50;;;;;;;4.50;4.10;;;;;;;32.22;39.85;100380.69;5093462;27;69296;-37
2021/08/10 06:58:23;;;;;;;9.38;3.58;;;;;;;32.24;39.67;100382.09;5114136;27;66644;-36
2021/08/10 07:00:54;;;;;;;4.20;3.88;;;;;;;32.20;39.64;100386.34;5091720;27;69899;-35
2021/08/10 07:03:25;;;;;;;8.15;3.78;;;;;;;32.19;39.05;100375.75;5108662;27;66498;-35
2021/08/10 07:05:57;;;;;;;4.28;3.65;;;;;;;32.19;39.04;100378.47;5112901;27;70637;-36
2021/08/10 07:08:33;;;;;;;8.32;3.58;;;;;;;32.20;38.80;100366.53;5111911;27;65777;-35
2021/08/10 07:11:05;;;;;;;7.05;3.35;;;;;;;32.21;39.07;100360.88;5126685;27;70377;-36
2021/08/10 07:13:38;;;;;;;12.02;3.95;;;;;;;32.22;39.03;100356.28;5112899;27;65815;-36
2021/08/10 07:16:10;;;;;;;16.13;3.53;;;;;;;32.25;39.12;100344.94;5097195;27;70495;-36
2021/08/10 07:18:44;;;;;;;4.10;3.45;;;;;;;32.26;39.13;100346.56;5110198;27;66681;-35
2021/08/10 07:21:20;;;;;;;5.10;3.22;;;;;;;32.26;39.08;100336.56;5112623;27;68817;-35
2021/08/10 07:23:59;;;;;;;10.68;3.60;;;;;;;32.28;38.94;100344.44;5111902;27;66201;-35
2021/08/10 07:26:31;;;;;;;5.35;3.08;;;;;;;32.28;38.44;100336.28;5104824;27;69857;-36
2021/08/10 07:29:03;;;;;;;5.93;4.40;;;;;;;32.31;38.72;100343.94;5114060;27;65379;-35
2021/08/10 07:31:34;;;;;;;7.78;2.78;;;;;;;32.31;39.91;100338.53;5080178;27;69925;-35
2021/08/10 07:34:13;;;;;;;7.32;3.20;;;;;;;32.32;40.51;100337.47;5111347;27;66765;-36
2021/08/10 07:36:46;;;;;;;11.02;3.17;;;;;;;32.33;40.23;100336.41;5111463;27;70095;-34
2021/08/10 07:39:19;;;;;;;16.75;3.72;;;;;;;32.35;40.00;100342.41;5110436;27;65311;-33
2021/08/10 07:41:50;;;;;;;7.63;3.00;;;;;;;32.36;40.04;100341.34;5106255;27;69876;-34
2021/08/10 07:44:21;;;;;;;8.90;3.07;;;;;;;32.35;39.15;100339.69;5093195;27;64908;-34
2021/08/10 07:46:52;;;;;;;5.55;3.00;;;;;;;32.39;38.96;100340.84;5108714;27;69521;-34
2021/08/10 07:49:25;;;;;;;9.93;3.20;;;;;;;32.40;38.39;100353.38;5111216;27;66259;-34
2021/08/10 07:51:56;;;;;;;8.00;3.00;;;;;;;32.40;38.25;100369.66;5112710;27;69145;-34
2021/08/10 07:54:27;;;;;;;8.48;3.15;;;;;;;32.39;37.85;100373.41;5109626;27;66246;-34
2021/08/10 07:56:59;;;;;;;3.10;2.80;;;;;;;32.40;38.33;100393.25;5106777;27;69876;-35
2021/08/10 07:59:30;;;;;;;;;;;;;;;31.98;38.56;100412.47;5114390;27;66434;-34
2021/08/10 08:02:00;;;;;;;6.30;3.25;;;;;;;32.26;38.75;100417.13;5076383;27;70111;-34
2021/08/10 08:04:35;;;;;;;4.32;3.58;;;;;;;32.43;45.00;100426.19;5110415;27;66437;-37
2021/08/10 08:07:05;;;;;;;4.43;3.85;;;;;;;32.62;45.35;100436.84;5115142;27;70024;-33
2021/08/10 08:09:36;;;;;;;4.15;3.75;;;;;;;32.76;47.46;100462.66;5110662;27;66211;-33
2021/08/10 08:12:08;;;;;;;8.77;3.83;;;;;;;32.90;47.69;100450.44;5109314;27;69260;-35
2021/08/10 08:14:38;;;;;;;8.02;4.20;;;;;;;32.97;47.42;100439.41;5105536;27;66659;-36
2021/08/10 08:17:11;;;;;;;12.38;4.38;;;;;;;32.97;46.43;100433.97;5104776;27;70309;-36
2021/08/10 08:19:44;;;;;;;7.72;4.38;;;;;;;32.95;45.27;100411.66;5106411;27;66410;-34
2021/08/10 08:22:18;;;;;;;5.93;4.05;;;;;;;32.87;44.96;100396.56;5095018;27;70149;-36
2021/08/10 08:24:51;;;;;;;15.63;4.00;;;;;;;32.85;45.21;100409.59;5089514;27;65947;-38
2021/08/10 08:27:27;;;;;;;11.75;4.18;;;;;;;32.83;45.27;100395.44;5102811;27;43706;-37
2021/08/10 08:29:58;;;;;;;;;;;;;;;32.43;48.20;100385.47;5091942;27;65969;-39
2021/08/10 08:32:32;;;;;;;9.20;4.07;;;;;;;32.75;46.89;100371.38;5105767;27;69084;-37
2021/08/10 08:35:04;;;;;;;9.15;4.38;;;;;;;32.72;46.49;100389.00;5077281;27;65573;-36
2021/08/10 08:37:36;;;;;;;7.82;4.82;;;;;;;32.70;46.10;100390.31;5083552;27;69381;-35
2021/08/10 08:40:08;;;;;;;9.85;3.85;;;;;;;32.63;45.43;100395.06;5115171;27;65386;-35
2021/08/10 08:42:45;;;;;;;4.38;4.00;;;;;;;32.59;45.76;100393.91;5080745;27;69892;-37
2021/08/10 08:45:18;;;;;;;3.63;3.33;;;;;;;32.64;48.60;100375.00;5100275;27;66488;-35
2021/08/10 08:47:55;;;;;;;4.15;3.85;;;;;;;32.55;50.38;100360.19;5098558;27;70347;-34
2021/08/10 08:50:26;;;;;;;5.55;4.30;;;;;;;32.76;55.29;100408.31;5112096;27;66583;-37
2021/08/10 08:53:03;;;;;;;8.18;4.20;;;;;;;32.85;56.56;100431.34;5107872;27;70588;-36
2021/08/10 08:55:36;;;;;;;12.20;5.45;;;;;;;32.86;58.64;100434.88;5090997;27;66054;-35
2021/08/10 08:58:07;;;;;;;7.85;5.05;;;;;;;32.89;58.37;100437.09;5103837;27;69289;-34
2021/08/10 09:00:41;;;;;;;5.10;4.60;;;;;;;32.94;58.44;100451.59;5117362;27;65979;-35
2021/08/10 09:03:12;;;;;;;6.07;4.22;;;;;;;32.98;58.67;100456.53;5113625;27;69560;-34
2021/08/10 09:05:47;;;;;;;;;;;;;;;32.63;61.57;100457.53;5114069;27;66804;-35
2021/08/10 09:08:33;;;;;;;10.88;4.45;;;;;;;32.60;60.63;100406.44;5111643;27;70121;-35
2021/08/10 09:11:15;;;;;;;;;;;;;;;32.62;60.93;100474.88;5126692;27;66400;-35
2021/08/10 09:13:59;;;;;;;4.93;3.47;;;;;;;32.87;61.12;100494.38;5114159;27;69962;-35
2021/08/10 09:16:35;;;;;;;3.80;2.83;;;;;;;32.92;59.32;100502.63;5111602;27;66065;-34
2021/08/10 09:19:08;;;;;;;6.03;5.25;;;;;;;32.92;59.69;100508.06;5110820;27;69562;-34
2021/08/10 09:21:39;;;;;;;4.85;4.35;;;;;;;32.91;59.95;100517.28;5096277;27;66374;-34
2021/08/10 09:24:15;;;;;;;3.80;3.20;;;;;;;32.91;59.09;100517.28;5106416;27;70211;-35
2021/08/10 09:26:47;;;;;;;3.15;2.85;;;;;;;32.85;59.82;100507.38;5104078;27;65418;-35
2021/08/10 09:29:23;;;;;;;3.55;3.30;;;;;;;32.84;60.51;100504.91;5103433;27;69100;-35
2021/08/10 09:31:54;;;;;;;3.50;3.20;;;;;;;32.81;60.67;100498.06;5094852;27;66004;-34
2021/08/10 09:34:30;;;;;;;4.00;2.90;;;;;;;32.80;60.30;100491.00;5102519;27;70502;-35
2021/08/10 09:37:13;;;;;;;3.47;2.95;;;;;;;32.73;60.52;100493.00;5099384;27;65988;-36
2021/08/10 09:39:45;;;;;;;3.30;2.72;;;;;;;32.73;61.10;100506.59;5102556;27;70056;-35
2021/08/10 09:42:17;;;;;;;3.13;2.93;;;;;;;32.67;61.31;100494.00;5095480;27;65127;-35
2021/08/10 09:44:57;;;;;;;3.55;3.25;;;;;;;32.69;61.49;100491.88;5092114;27;69746;-35
2021/08/10 09:47:39;;;;;;;3.65;3.35;;;;;;;32.64;61.28;100484.44;5096477;27;66363;-35
2021/08/10 09:50:30;;;;;;;2.97;2.67;;;;;;;32.55;61.77;100485.88;5097956;27;70023;-38
2021/08/10 09:53:18;;;;;;;3.42;2.88;;;;;;;32.53;62.10;100470.91;5093986;27;65505;-37
2021/08/10 09:55:57;;;;;;;3.85;2.97;;;;;;;32.60;61.74;100455.31;5104595;27;70348;-36
2021/08/10 09:58:29;;;;;;;2.88;2.63;;;;;;;32.65;61.27;100437.22;5081239;27;66418;-35
2021/08/10 10:01:01;;;;;;;2.85;2.60;;;;;;;32.69;61.41;100430.22;5089089;27;69066;-36
2021/08/10 10:03:35;;;;;;;4.60;3.13;;;;;;;32.71;61.39;100428.09;5112186;27;67134;-34
2021/08/10 10:06:29;;;;;;;;;;;;;;;32.45;62.73;100450.34;5110030;27;70519;-34
2021/08/10 10:09:01;;;;;;;4.53;3.15;;;;;;;32.74;61.31;100456.66;5115305;27;65732;-33
2021/08/10 10:11:54;;;;;;;3.00;2.80;;;;;;;32.82;61.79;100469.00;5112285;27;69784;-34
2021/08/10 10:14:28;;;;;;;2.90;2.33;;;;;;;32.87;61.37;100467.19;5115806;27;65651;-34
2021/08/10 10:17:00;;;;;;;5.10;2.85;;;;;;;32.85;61.81;100469.34;5113170;27;70247;-36
2021/08/10 10:19:34;;;;;;;5.75;2.60;;;;;;;32.88;61.66;100478.91;5107289;27;67087;-35
2021/08/10 10:22:17;;;;;;;3.58;2.67;;;;;;;32.90;61.62;100466.75;5111569;27;69037;-34
2021/08/10 10:24:57;;;;;;;8.63;3.10;;;;;;;32.84;61.94;100462.25;5113101;27;66582;-37
2021/08/10 10:27:29;;;;;;;3.92;3.03;;;;;;;32.91;62.63;100483.88;5109673;27;70056;-37
2021/08/10 10:30:00;;;;;;;5.90;3.33;;;;;;;32.94;62.70;100481.47;5101383;27;64295;-35
2021/08/10 10:32:30;;;;;;;6.43;3.28;;;;;;;33.00;62.65;100492.47;5118618;27;70103;-39
2021/08/10 10:35:00;;;;;;;8.73;2.90;;;;;;;33.05;62.31;100485.22;5113805;27;66577;-34
2021/08/10 10:37:36;;;;;;;6.80;3.05;;;;;;;33.08;62.40;100484.75;5116175;27;68739;-34
2021/08/10 10:40:08;;;;;;;4.20;3.17;;;;;;;33.15;62.54;100490.00;5113710;27;65915;-33
2021/08/10 10:42:40;;;;;;;4.47;3.35;;;;;;;33.17;62.47;100496.03;5116239;27;70008;-35
2021/08/10 10:45:33;;;;;;;7.15;3.20;;;;;;;33.13;62.79;100486.72;5062760;27;64612;-35
2021/08/10 10:48:22;;;;;;;;;;;;;;;32.92;63.21;100496.38;5094155;27;69285;-34
2021/08/10 10:51:10;;;;;;;2.88;2.60;;;;;;;33.12;62.65;100502.19;5110187;27;66713;-36
2021/08/10 10:53:44;;;;;;;8.35;3.58;;;;;;;33.26;62.10;100518.19;5104691;27;69873;-35
2021/08/10 10:56:27;;;;;;;3.75;3.35;;;;;;;33.25;62.65;100516.56;5109442;27;65437;-36
2021/08/10 10:59:29;;;;;;;3.22;2.92;;;;;;;33.21;62.07;100532.53;5114191;27;70195;-35
2021/08/10 11:02:32;;;;;;;3.05;2.83;;;;;;;33.30;61.92;100533.78;5113128;27;66609;-35
2021/08/10 11:05:11;;;;;;;6.53;3.28;;;;;;;33.27;61.22;100526.13;5117591;27;69853;-35
2021/08/10 11:07:47;;;;;;;13.13;3.00;;;;;;;32.99;59.65;100493.47;5118019;27;66504;-36
2021/08/10 11:10:48;;;;;;;7.97;3.38;;;;;;;32.78;58.57;100501.25;5110715;27;70428;-35
2021/08/10 11:13:22;;;;;;;15.07;4.03;;;;;;;32.81;58.03;100506.22;5114093;27;66006;-35
2021/08/10 11:15:52;;;;;;;23.02;9.13;;;;;;;32.65;56.19;100501.53;5110356;27;70488;-38
2021/08/10 11:18:27;;;;;;;39.88;13.57;;;;;;;32.51;56.24;100500.19;5113643;27;66814;-35
2021/08/10 11:21:00;;;;;;;36.35;14.48;;;;;;;32.31;56.19;100501.38;5116459;27;71392;-36
2021/08/10 11:23:33;;;;;;;30.73;12.65;;;;;;;31.97;55.97;100476.78;5091452;27;66417;-36
2021/08/10 11:26:09;;;;;;;38.38;12.63;;;;;;;31.95;56.44;100505.19;5114534;27;70003;-34
2021/08/10 11:28:50;;;;;;;33.42;11.68;;;;;;;31.73;55.74;100510.34;5110410;27;65933;-35
2021/08/10 11:31:51;;;;;;;36.78;10.02;;;;;;;31.52;56.51;100518.00;5114475;27;69574;-34
2021/08/10 11:34:43;;;;;;;16.05;8.40;;;;;;;31.35;55.49;100488.00;5117424;27;65691;-35
2021/08/10 11:37:25;;;;;;;19.35;8.20;;;;;;;31.19;54.83;100479.72;5111729;27;69775;-35
2021/08/10 11:40:07;;;;;;;18.48;8.75;;;;;;;31.25;55.04;100508.59;5116734;27;66101;-35
2021/08/10 11:42:40;;;;;;;16.05;7.70;;;;;;;31.17;54.40;100521.44;5109157;27;69389;-36
2021/08/10 11:45:11;;;;;;;19.02;8.27;;;;;;;31.08;54.06;100513.84;5116184;27;66565;-34
2021/08/10 11:47:55;;;;;;;23.27;7.43;;;;;;;30.95;53.80;100520.28;5112663;27;70107;-39
2021/08/10 11:50:30;;;;;;;15.75;7.18;;;;;;;30.72;54.39;100497.41;5099034;27;66066;-35
2021/08/10 11:53:06;;;;;;;15.00;6.55;;;;;;;30.90;54.52;100545.34;5100199;27;69142;-34
2021/08/10 11:55:37;;;;;;;33.05;6.35;;;;;;;30.85;53.74;100547.09;5109300;27;66120;-34
2021/08/10 11:58:08;;;;;;;24.80;6.47;;;;;;;30.74;54.02;100540.53;5111267;27;70727;-34
2021/08/10 12:00:39;;;;;;;15.18;5.95;;;;;;;30.73;52.22;100555.94;5112055;27;66407;-34